Terminal Aerodrome Forecast
Issued by NWS

Home | Current Version | Previous Version | Text Only | Print | Product List | Glossary On
Versions: 1 2 3 4 5 6 7 8 9 10 11 12 13 14 15 16
000
FTUS46 KLOX 030543
TAFPMD
TAF
KPMD 030543Z 0306/0406 28008KT P6SM SKC
     FM030700 23007KT P6SM SKC
     FM031000 VRB05KT P6SM SKC
     FM031900 25012KT P6SM SKC
     FM032100 25015G25KT P6SM SKC
     FM040300 23014KT P6SM SKC=

USA.gov is the U.S. government's official web portal to all federal, state and local government web resources and services.